Terminal Aerodrome Forecast
Issued by NWS

Home | Current Version | Previous Version | Text Only | Print | Product List | Glossary On
Versions: 1 2 3 4 5 6 7 8 9 10 11 12 13 14 15 16 17 18 19 20 21 22 23 24 25 26 27 28 29 30 31 32
153
FTUS41 KBOX 110528
TAFFMH
TAF
KFMH 110528Z 1106/1206 27010KT P6SM OVC035
     FM111100 26007KT P6SM VCSH OVC030
     FM111400 26010KT P6SM VCSH OVC045
     FM111700 27011KT P6SM SCT250=

USA.gov is the U.S. government's official web portal to all federal, state and local government web resources and services.